Time;durP1;ratioP1;P1;durP2;ratioP2;P2;SDS_P1;SDS_P2;PMS_P1;PMS_P2;Temp;Humidity;BMP_temperature;BMP_pressure;BME280_temperature;BME280_humidity;BME280_pressure;Samples;Min_cycle;Max_cycle;Signal;HPM_P1;HPM_P2
2021/06/06 00:02:21;;;;;;;4.30;3.87;;;;;;;;;;5072285;28;20438;-77
2021/06/06 00:04:47;;;;;;;4.57;4.13;;;;;;;;;;5072405;28;20737;-76
2021/06/06 00:07:13;;;;;;;3.73;3.37;;;;;;;;;;5072414;28;20437;-76
2021/06/06 00:12:43;;;;;;;4.70;3.63;;;;;;;;;;5072420;28;20736;-75
2021/06/06 00:15:10;;;;;;;3.93;3.27;;;;;;;;;;5072125;28;20410;-76
2021/06/06 00:17:36;;;;;;;3.63;3.33;;;;;;;;;;5071894;28;20465;-78
2021/06/06 00:20:04;;;;;;;3.70;3.40;;;;;;;;;;5072205;28;20441;-77
2021/06/06 00:22:30;;;;;;;3.53;3.13;;;;;;;;;;5070597;28;20533;-77
2021/06/06 00:28:00;;;;;;;3.77;2.80;;;;;;;;;;5071920;28;20919;-76
2021/06/06 00:30:27;;;;;;;3.63;3.33;;;;;;;;;;5072061;28;20918;-75
2021/06/06 00:32:53;;;;;;;3.50;3.20;;;;;;;;;;5072017;28;20878;-77
2021/06/06 00:35:19;;;;;;;3.17;2.87;;;;;;;;;;5071846;28;20468;-77
2021/06/06 00:37:45;;;;;;;3.37;3.00;;;;;;;;;;5071906;28;20876;-76
2021/06/06 00:43:22;;;;;;;3.57;3.27;;;;;;;;;;5071710;28;20413;-77
2021/06/06 00:45:48;;;;;;;3.77;3.37;;;;;;;;;;5071878;28;20863;-76
2021/06/06 00:48:15;;;;;;;3.90;3.50;;;;;;;;;;5071906;28;20748;-77
2021/06/06 00:50:43;;;;;;;3.83;3.53;;;;;;;;;;5071756;28;20414;-76
2021/06/06 00:53:19;;;;;;;3.43;2.73;;;;;;;;;;5070233;28;20470;-76
2021/06/06 00:55:46;;;;;;;3.30;3.00;;;;;;;;;;5071081;28;20721;-78
2021/06/06 00:58:13;;;;;;;4.03;3.60;;;;;;;;;;5071354;28;20470;-76
2021/06/06 01:00:39;;;;;;;3.47;3.27;;;;;;;;;;5071685;28;20841;-76
2021/06/06 01:03:06;;;;;;;3.27;2.97;;;;;;;;;;5071730;28;20423;-76
2021/06/06 01:05:32;;;;;;;5.10;3.10;;;;;;;;;;5071639;28;20678;-75
2021/06/06 01:07:58;;;;;;;4.53;4.00;;;;;;;;;;5071726;28;20417;-77
2021/06/06 01:13:30;;;;;;;4.00;3.50;;;;;;;;;;5071192;28;20567;-77
2021/06/06 01:16:09;;;;;;;4.90;3.60;;;;;;;;;;5071534;28;20410;-77
2021/06/06 01:18:41;;;;;;;10.00;4.47;;;;;;;;;;5071215;28;20462;-76
2021/06/06 01:21:13;;;;;;;5.30;4.20;;;;;;;;;;5071439;28;20402;-75
2021/06/06 01:23:57;;;;;;;4.67;4.17;;;;;;;;;;5071316;28;20934;-76
2021/06/06 01:26:30;;;;;;;3.67;3.37;;;;;;;;;;5071403;28;20398;-77
2021/06/06 01:29:02;;;;;;;5.53;4.17;;;;;;;;;;5071164;28;20438;-77
2021/06/06 01:31:29;;;;;;;4.37;3.97;;;;;;;;;;5071187;28;21007;-78
2021/06/06 01:34:01;;;;;;;4.70;3.93;;;;;;;;;;5071320;28;20421;-78
2021/06/06 01:36:33;;;;;;;7.23;4.70;;;;;;;;;;5071162;28;20462;-76
2021/06/06 01:39:01;;;;;;;4.07;3.67;;;;;;;;;;5071196;28;20470;-77
2021/06/06 01:41:36;;;;;;;4.37;3.50;;;;;;;;;;5071155;28;20793;-76
2021/06/06 01:44:04;;;;;;;4.10;3.60;;;;;;;;;;5071079;28;20424;-76
2021/06/06 01:46:41;;;;;;;3.77;3.47;;;;;;;;;;5070942;28;20418;-75
2021/06/06 01:49:08;;;;;;;3.60;3.17;;;;;;;;;;5071141;28;20406;-76
2021/06/06 01:51:40;;;;;;;3.80;3.07;;;;;;;;;;5071011;28;20417;-78
2021/06/06 01:54:07;;;;;;;3.97;3.53;;;;;;;;;;5071147;28;20408;-76
2021/06/06 01:56:35;;;;;;;3.83;3.43;;;;;;;;;;5070933;28;20418;-76
2021/06/06 01:59:03;;;;;;;4.20;3.80;;;;;;;;;;5071001;28;20465;-77
2021/06/06 02:01:29;;;;;;;4.20;3.80;;;;;;;;;;5070837;28;20570;-78
2021/06/06 02:03:56;;;;;;;4.17;3.77;;;;;;;;;;5071025;28;20497;-77
2021/06/06 02:06:26;;;;;;;3.60;3.30;;;;;;;;;;5071154;28;20406;-77
2021/06/06 02:08:52;;;;;;;3.90;3.57;;;;;;;;;;5074201;28;20461;-77
2021/06/06 02:11:24;;;;;;;7.00;3.77;;;;;;;;;;5073666;28;20924;-76
2021/06/06 02:13:57;;;;;;;4.27;3.83;;;;;;;;;;5074737;28;20502;-77
2021/06/06 02:16:25;;;;;;;3.93;3.53;;;;;;;;;;5074585;28;20818;-76
2021/06/06 02:18:52;;;;;;;6.63;4.70;;;;;;;;;;5074711;28;20519;-77
2021/06/06 02:21:18;;;;;;;4.00;3.67;;;;;;;;;;5074895;28;20414;-76
2021/06/06 02:23:45;;;;;;;4.90;3.80;;;;;;;;;;5074683;28;20418;-76
2021/06/06 02:29:30;;;;;;;5.23;3.77;;;;;;;;;;5074612;28;20491;-77
2021/06/06 02:32:02;;;;;;;4.77;3.40;;;;;;;;;;5073215;28;20854;-76
2021/06/06 02:34:34;;;;;;;3.57;3.00;;;;;;;;;;5074254;28;20469;-77
2021/06/06 02:37:03;;;;;;;4.00;3.60;;;;;;;;;;5074194;28;20410;-76
2021/06/06 02:39:36;;;;;;;3.93;3.60;;;;;;;;;;5074502;28;20457;-78
2021/06/06 02:42:09;;;;;;;4.43;4.00;;;;;;;;;;5074396;28;20837;-76
2021/06/06 02:44:44;;;;;;;4.73;4.00;;;;;;;;;;5073275;28;20453;-76
2021/06/06 02:47:11;;;;;;;4.70;4.00;;;;;;;;;;5073977;28;20497;-76
2021/06/06 02:49:39;;;;;;;5.43;4.00;;;;;;;;;;5074095;28;20452;-76
2021/06/06 02:52:26;;;;;;;4.37;3.77;;;;;;;;;;5073966;28;20442;-78
2021/06/06 02:55:00;;;;;;;4.73;4.23;;;;;;;;;;5074025;28;20429;-77
2021/06/06 02:57:28;;;;;;;4.40;4.00;;;;;;;;;;5073793;28;20603;-77
2021/06/06 03:00:23;;;;;;;5.27;3.73;;;;;;;;;;5073789;28;20916;-77
2021/06/06 03:02:53;;;;;;;6.50;4.57;;;;;;;;;;5076903;28;20418;-77
2021/06/06 03:05:21;;;;;;;4.70;4.20;;;;;;;;;;5073622;28;20414;-75
2021/06/06 03:07:49;;;;;;;6.63;3.83;;;;;;;;;;5073559;28;20880;-78
2021/06/06 03:10:17;;;;;;;5.67;4.67;;;;;;;;;;5072262;28;20430;-75
2021/06/06 03:12:43;;;;;;;5.67;4.40;;;;;;;;;;5073516;28;20406;-77
2021/06/06 03:15:11;;;;;;;5.03;4.53;;;;;;;;;;5073186;28;20413;-76
2021/06/06 03:17:39;;;;;;;5.93;3.80;;;;;;;;;;5073375;28;20454;-78
2021/06/06 03:20:07;;;;;;;6.53;5.93;;;;;;;;;;5072703;28;20429;-76
2021/06/06 03:22:35;;;;;;;4.50;4.10;;;;;;;;;;5073314;28;20506;-77
2021/06/06 03:25:05;;;;;;;5.73;4.17;;;;;;;;;;5073270;28;20547;-76
2021/06/06 03:27:34;;;;;;;5.33;4.83;;;;;;;;;;5073244;28;20406;-77
2021/06/06 03:30:03;;;;;;;5.07;4.47;;;;;;;;;;5073268;28;20476;-75
2021/06/06 03:32:32;;;;;;;4.90;4.40;;;;;;;;;;5073085;28;20413;-77
2021/06/06 03:34:58;;;;;;;7.37;5.43;;;;;;;;;;5073241;28;20524;-77
2021/06/06 03:37:24;;;;;;;7.30;5.10;;;;;;;;;;5073210;28;20804;-76
2021/06/06 03:39:50;;;;;;;5.53;4.93;;;;;;;;;;5073526;28;20872;-76
2021/06/06 03:42:17;;;;;;;6.10;5.20;;;;;;;;;;5073140;28;20494;-77
2021/06/06 03:44:43;;;;;;;5.50;4.77;;;;;;;;;;5073293;28;20406;-78
2021/06/06 03:47:09;;;;;;;8.80;5.33;;;;;;;;;;5073220;28;21053;-75
2021/06/06 03:49:35;;;;;;;8.00;5.57;;;;;;;;;;5072999;28;20410;-77
2021/06/06 03:52:01;;;;;;;7.67;5.17;;;;;;;;;;5072955;28;20536;-77
2021/06/06 03:54:28;;;;;;;6.63;5.30;;;;;;;;;;5073016;28;20455;-77
2021/06/06 03:59:57;;;;;;;5.03;4.50;;;;;;;;;;5072816;28;20448;-78
2021/06/06 04:02:23;;;;;;;7.13;4.73;;;;;;;;;;5072420;28;20425;-79
2021/06/06 04:04:49;;;;;;;6.97;4.50;;;;;;;;;;5072844;28;20402;-76
2021/06/06 04:07:15;;;;;;;9.00;5.03;;;;;;;;;;5072773;28;20414;-77
2021/06/06 04:09:41;;;;;;;4.37;3.97;;;;;;;;;;5071351;28;20422;-76
2021/06/06 04:15:11;;;;;;;6.57;4.83;;;;;;;;;;5072360;28;20486;-75
2021/06/06 04:17:37;;;;;;;5.03;4.30;;;;;;;;;;5072264;28;20450;-76
2021/06/06 04:20:04;;;;;;;4.60;3.80;;;;;;;;;;5071106;28;20446;-77
2021/06/06 04:22:30;;;;;;;4.30;3.90;;;;;;;;;;5070877;28;20422;-76
2021/06/06 04:24:56;;;;;;;5.13;4.17;;;;;;;;;;5072147;28;20457;-76
2021/06/06 04:27:22;;;;;;;4.83;3.83;;;;;;;;;;5071959;28;20406;-76
2021/06/06 04:29:48;;;;;;;5.33;4.63;;;;;;;;;;5071770;28;20453;-77
2021/06/06 04:32:15;;;;;;;6.10;4.50;;;;;;;;;;5070961;28;20788;-77
2021/06/06 04:34:42;;;;;;;7.63;4.93;;;;;;;;;;5071779;28;20477;-77
2021/06/06 04:37:09;;;;;;;4.60;3.90;;;;;;;;;;5071900;28;20861;-77
2021/06/06 04:39:35;;;;;;;4.67;4.27;;;;;;;;;;5071994;28;20430;-77
2021/06/06 04:45:05;;;;;;;8.67;4.60;;;;;;;;;;5071551;28;20470;-76
2021/06/06 04:47:31;;;;;;;5.00;4.10;;;;;;;;;;5071755;28;20754;-77
2021/06/06 04:49:58;;;;;;;8.70;4.13;;;;;;;;;;5071807;28;20406;-76
2021/06/06 04:52:24;;;;;;;7.17;3.60;;;;;;;;;;5071668;28;20410;-76
2021/06/06 04:54:50;;;;;;;6.57;4.20;;;;;;;;;;5071824;28;20406;-77
2021/06/06 05:00:21;;;;;;;7.77;4.33;;;;;;;;;;5071518;28;20448;-75
2021/06/06 05:02:47;;;;;;;9.30;5.43;;;;;;;;;;5071357;28;20414;-77
2021/06/06 05:05:13;;;;;;;9.63;5.77;;;;;;;;;;5070326;28;20979;-76
2021/06/06 05:07:39;;;;;;;10.53;5.93;;;;;;;;;;5071828;28;20434;-77
2021/06/06 05:10:07;;;;;;;11.53;6.00;;;;;;;;;;5071803;28;20406;-78
2021/06/06 05:15:36;;;;;;;9.20;6.00;;;;;;;;;;5071644;28;20861;-79
2021/06/06 05:18:04;;;;;;;10.80;6.20;;;;;;;;;;5070758;28;20530;-77
2021/06/06 05:20:32;;;;;;;11.03;7.30;;;;;;;;;;5071171;28;20418;-78
2021/06/06 05:22:58;;;;;;;10.83;6.13;;;;;;;;;;5071532;28;20910;-76
2021/06/06 05:25:24;;;;;;;8.57;5.20;;;;;;;;;;5071373;28;20425;-76
2021/06/06 05:27:50;;;;;;;11.03;6.80;;;;;;;;;;5071184;28;20414;-76
2021/06/06 05:30:18;;;;;;;10.57;6.20;;;;;;;;;;5070927;28;20410;-74
2021/06/06 05:32:44;;;;;;;9.70;5.73;;;;;;;;;;5069781;28;20421;-75
2021/06/06 05:35:11;;;;;;;10.67;6.10;;;;;;;;;;5067119;28;20458;-76
2021/06/06 05:37:37;;;;;;;9.47;5.80;;;;;;;;;;5070356;28;20543;-76
2021/06/06 05:40:04;;;;;;;9.10;6.00;;;;;;;;;;5070762;28;20877;-76
2021/06/06 05:45:35;;;;;;;7.87;6.00;;;;;;;;;;5074072;28;20858;-76
2021/06/06 05:48:02;;;;;;;11.00;6.60;;;;;;;;;;5075297;28;20414;-76
2021/06/06 05:50:34;;;;;;;8.57;6.07;;;;;;;;;;5073597;28;20533;-76
2021/06/06 05:53:03;;;;;;;10.53;6.17;;;;;;;;;;5073271;28;20426;-77
2021/06/06 05:55:29;;;;;;;11.20;7.17;;;;;;;;;;5073132;28;20444;-76
2021/06/06 06:01:00;;;;;;;8.50;6.70;;;;;;;;;;5074444;28;20458;-76
2021/06/06 06:03:27;;;;;;;12.47;6.90;;;;;;;;;;5074250;28;20402;-77
2021/06/06 06:05:54;;;;;;;8.57;6.10;;;;;;;;;;5074357;28;20905;-72
2021/06/06 06:08:22;;;;;;;9.00;6.67;;;;;;;;;;5074427;28;20406;-76
2021/06/06 06:16:39;;;;;;;11.47;8.20;;;;;;;;;;5074067;28;20451;-76
2021/06/06 06:19:06;;;;;;;8.93;7.73;;;;;;;;;;5074002;28;20466;-76
2021/06/06 06:21:32;;;;;;;12.67;8.17;;;;;;;;;;5073840;28;20405;-76
2021/06/06 06:23:58;;;;;;;10.23;7.63;;;;;;;;;;5072139;28;20452;-77
2021/06/06 06:26:25;;;;;;;11.83;8.43;;;;;;;;;;5073845;28;20419;-79
2021/06/06 06:28:51;;;;;;;9.90;7.67;;;;;;;;;;5074244;28;20797;-76
2021/06/06 06:31:17;;;;;;;12.30;9.33;;;;;;;;;;5074381;28;20499;-78
2021/06/06 06:33:44;;;;;;;11.40;8.93;;;;;;;;;;5073061;28;20430;-77
2021/06/06 06:36:12;;;;;;;10.67;8.30;;;;;;;;;;5074688;28;20488;-76
2021/06/06 06:38:38;;;;;;;13.40;7.40;;;;;;;;;;5074154;28;20505;-77
2021/06/06 06:41:04;;;;;;;10.97;8.53;;;;;;;;;;5071341;28;20434;-72
2021/06/06 06:46:33;;;;;;;8.57;7.17;;;;;;;;;;5073674;28;20463;-72
2021/06/06 06:48:59;;;;;;;8.13;6.53;;;;;;;;;;5074105;28;20410;-73
2021/06/06 06:51:26;;;;;;;8.23;7.03;;;;;;;;;;5073827;28;20497;-71
2021/06/06 06:53:54;;;;;;;7.70;6.33;;;;;;;;;;5072216;28;20402;-76
2021/06/06 06:56:21;;;;;;;9.90;6.90;;;;;;;;;;5072290;28;20433;-76
2021/06/06 06:58:47;;;;;;;6.47;5.00;;;;;;;;;;5073507;28;20501;-75
2021/06/06 07:01:13;;;;;;;7.30;4.40;;;;;;;;;;5073618;28;20414;-76
2021/06/06 07:03:39;;;;;;;7.07;5.10;;;;;;;;;;5072769;28;20468;-76
2021/06/06 07:06:06;;;;;;;5.87;4.50;;;;;;;;;;5073299;28;20467;-75
2021/06/06 07:08:34;;;;;;;8.80;5.30;;;;;;;;;;5073494;28;20512;-75
2021/06/06 07:11:00;;;;;;;7.07;4.90;;;;;;;;;;5073850;28;20866;-73
2021/06/06 07:16:29;;;;;;;6.97;5.30;;;;;;;;;;5073955;28;20417;-76
2021/06/06 07:18:55;;;;;;;9.13;4.93;;;;;;;;;;5074326;28;20525;-76
2021/06/06 07:21:23;;;;;;;6.27;5.67;;;;;;;;;;5074322;28;20801;-75
2021/06/06 07:23:49;;;;;;;7.50;5.60;;;;;;;;;;5074522;28;20410;-75
2021/06/06 07:26:18;;;;;;;5.93;5.33;;;;;;;;;;5074152;28;20426;-74
2021/06/06 07:31:49;;;;;;;8.27;6.20;;;;;;;;;;5073675;28;20934;-76
2021/06/06 07:34:16;;;;;;;7.07;6.13;;;;;;;;;;5073636;28;20410;-75
2021/06/06 07:36:43;;;;;;;8.87;7.17;;;;;;;;;;5073921;28;20410;-75
2021/06/06 07:39:10;;;;;;;7.63;6.20;;;;;;;;;;5073731;28;20520;-76
2021/06/06 07:41:36;;;;;;;8.23;6.90;;;;;;;;;;5072534;28;20460;-76
2021/06/06 07:47:06;;;;;;;9.70;6.83;;;;;;;;;;5072993;28;20428;-78
2021/06/06 07:49:33;;;;;;;11.17;7.03;;;;;;;;;;5073135;28;20415;-75
2021/06/06 07:51:59;;;;;;;9.67;6.93;;;;;;;;;;5073090;28;20410;-75
2021/06/06 07:54:25;;;;;;;13.03;7.77;;;;;;;;;;5073194;28;20463;-77
2021/06/06 07:56:51;;;;;;;12.83;8.30;;;;;;;;;;5072380;28;20829;-76
2021/06/06 08:02:20;;;;;;;15.70;9.57;;;;;;;;;;5071944;28;20459;-76
2021/06/06 08:04:46;;;;;;;11.53;8.77;;;;;;;;;;5072317;28;20771;-76
2021/06/06 08:07:12;;;;;;;13.07;7.83;;;;;;;;;;5072435;28;20418;-75
2021/06/06 08:09:38;;;;;;;11.80;8.70;;;;;;;;;;5072245;28;20414;-76
2021/06/06 08:12:04;;;;;;;10.10;8.03;;;;;;;;;;5072079;28;20904;-75
2021/06/06 08:17:34;;;;;;;14.13;9.27;;;;;;;;;;5071844;28;20460;-76
2021/06/06 08:20:00;;;;;;;15.33;9.77;;;;;;;;;;5072134;28;20426;-75
2021/06/06 08:22:26;;;;;;;13.77;9.43;;;;;;;;;;5071868;28;20916;-75
2021/06/06 08:24:52;;;;;;;17.20;9.43;;;;;;;;;;5070383;28;20775;-75
2021/06/06 08:27:19;;;;;;;12.20;10.00;;;;;;;;;;5071892;28;20520;-75
2021/06/06 08:29:45;;;;;;;17.67;10.77;;;;;;;;;;5071697;28;20904;-76
2021/06/06 08:32:11;;;;;;;17.80;11.13;;;;;;;;;;5072550;28;20888;-84
2021/06/06 08:34:37;;;;;;;17.23;11.33;;;;;;;;;;5071950;28;20825;-77
2021/06/06 08:37:04;;;;;;;15.20;11.00;;;;;;;;;;5070721;28;20495;-78
2021/06/06 08:39:31;;;;;;;15.80;10.57;;;;;;;;;;5071574;28;20491;-77
2021/06/06 08:42:05;;;;;;;17.27;10.90;;;;;;;;;;5070641;28;20544;-75
2021/06/06 08:47:36;;;;;;;16.27;11.30;;;;;;;;;;5071873;28;20413;-76
2021/06/06 08:50:29;;;;;;;17.97;11.10;;;;;;;;;;5070479;28;20903;-74
2021/06/06 08:53:04;;;;;;;13.00;9.97;;;;;;;;;;5069441;28;20430;-75
2021/06/06 08:55:41;;;;;;;22.73;11.57;;;;;;;;;;5071512;28;20413;-75
2021/06/06 08:58:07;;;;;;;14.50;10.13;;;;;;;;;;5070107;28;20548;-76
2021/06/06 09:00:35;;;;;;;14.57;8.70;;;;;;;;;;5070038;28;20815;-76
2021/06/06 09:03:04;;;;;;;13.97;10.80;;;;;;;;;;5071567;28;20441;-74
2021/06/06 09:05:34;;;;;;;16.57;9.80;;;;;;;;;;5071737;28;20449;-77
2021/06/06 09:08:02;;;;;;;17.03;9.20;;;;;;;;;;5071685;28;20417;-74
2021/06/06 09:10:35;;;;;;;16.13;10.00;;;;;;;;;;5071520;28;20406;-77
2021/06/06 09:13:02;;;;;;;12.70;9.70;;;;;;;;;;5071428;28;20418;-76
2021/06/06 09:15:28;;;;;;;17.40;12.30;;;;;;;;;;5069882;28;20422;-74
2021/06/06 09:17:58;;;;;;;15.47;10.20;;;;;;;;;;5073261;28;20811;-74
2021/06/06 09:20:31;;;;;;;16.57;10.53;;;;;;;;;;5075522;28;20421;-76
2021/06/06 09:23:10;;;;;;;16.57;12.40;;;;;;;;;;5075331;28;20436;-75
2021/06/06 09:25:37;;;;;;;15.90;11.63;;;;;;;;;;5075551;28;20512;-74
2021/06/06 09:28:09;;;;;;;15.13;9.30;;;;;;;;;;5075277;28;20793;-73
2021/06/06 09:30:36;;;;;;;14.63;9.77;;;;;;;;;;5075297;28;20418;-73
2021/06/06 09:33:04;;;;;;;10.67;8.20;;;;;;;;;;5075472;28;20916;-73
2021/06/06 09:35:53;;;;;;;13.47;9.20;;;;;;;;;;5074911;28;20462;-75
2021/06/06 09:38:31;;;;;;;11.70;8.13;;;;;;;;;;5077235;28;20508;-72
2021/06/06 09:41:12;;;;;;;12.17;8.00;;;;;;;;;;5075325;28;20487;-75
2021/06/06 09:43:38;;;;;;;13.57;8.57;;;;;;;;;;5075051;28;20409;-76
2021/06/06 09:46:09;;;;;;;14.07;11.57;;;;;;;;;;5075152;28;20444;-76
2021/06/06 09:48:40;;;;;;;18.80;10.50;;;;;;;;;;5074834;28;20402;-76
2021/06/06 09:51:29;;;;;;;15.43;10.27;;;;;;;;;;5074635;28;20422;-75
2021/06/06 09:53:59;;;;;;;10.53;8.70;;;;;;;;;;5074196;28;20786;-75
2021/06/06 09:56:27;;;;;;;15.00;9.87;;;;;;;;;;5074656;28;20428;-76
2021/06/06 09:58:55;;;;;;;11.53;9.30;;;;;;;;;;5074749;28;20465;-76
2021/06/06 10:01:24;;;;;;;12.93;10.23;;;;;;;;;;5074576;28;20406;-76
2021/06/06 10:03:52;;;;;;;10.87;9.43;;;;;;;;;;5074535;28;20490;-76
2021/06/06 10:06:24;;;;;;;13.50;8.93;;;;;;;;;;5074601;28;20402;-76
2021/06/06 10:08:58;;;;;;;10.50;9.30;;;;;;;;;;5074621;28;20878;-78
2021/06/06 10:11:28;;;;;;;14.30;9.90;;;;;;;;;;5073102;28;20421;-74
2021/06/06 10:13:54;;;;;;;14.00;10.57;;;;;;;;;;5074344;28;20414;-76
2021/06/06 10:16:26;;;;;;;15.83;10.97;;;;;;;;;;5074324;28;20477;-75
2021/06/06 10:19:18;;;;;;;14.00;10.20;;;;;;;;;;5074493;28;20501;-76
2021/06/06 10:21:46;;;;;;;12.57;11.20;;;;;;;;;;5074037;28;20426;-77
2021/06/06 10:24:17;;;;;;;12.17;10.77;;;;;;;;;;5074784;28;20771;-78
2021/06/06 10:26:55;;;;;;;12.83;11.03;;;;;;;;;;5074486;28;20410;-78
2021/06/06 10:29:29;;;;;;;14.57;11.83;;;;;;;;;;5074331;28;20406;-77
2021/06/06 10:31:59;;;;;;;16.00;12.37;;;;;;;;;;5074219;28;20499;-77
2021/06/06 10:34:33;;;;;;;15.50;12.93;;;;;;;;;;5073733;28;20461;-76
2021/06/06 10:37:00;;;;;;;18.40;14.00;;;;;;;;;;5074347;28;20768;-75
2021/06/06 10:39:27;;;;;;;16.03;13.70;;;;;;;;;;5073995;28;20951;-76
2021/06/06 10:42:00;;;;;;;17.40;15.07;;;;;;;;;;5073964;28;20426;-76
2021/06/06 10:44:46;;;;;;;19.77;14.00;;;;;;;;;;5073687;28;20513;-77
2021/06/06 10:47:20;;;;;;;22.07;15.93;;;;;;;;;;5072226;28;20856;-76
2021/06/06 10:49:55;;;;;;;19.13;14.70;;;;;;;;;;5073860;28;20437;-76
2021/06/06 10:52:24;;;;;;;19.93;15.20;;;;;;;;;;5073775;28;20517;-77
2021/06/06 10:54:58;;;;;;;22.53;15.40;;;;;;;;;;5072784;28;20434;-76
2021/06/06 10:57:24;;;;;;;23.13;15.00;;;;;;;;;;5073531;28;20409;-77
2021/06/06 10:59:53;;;;;;;24.07;15.50;;;;;;;;;;5073674;28;20415;-77
2021/06/06 11:02:28;;;;;;;18.73;15.80;;;;;;;;;;5073428;28;20425;-76
2021/06/06 11:04:56;;;;;;;21.40;17.80;;;;;;;;;;5073736;28;20524;-77
2021/06/06 11:07:31;;;;;;;27.37;17.50;;;;;;;;;;5073569;28;20410;-76
2021/06/06 11:10:27;;;;;;;22.30;17.03;;;;;;;;;;5073657;28;20774;-76
2021/06/06 11:12:55;;;;;;;22.37;18.27;;;;;;;;;;5072191;28;20438;-76
2021/06/06 11:15:30;;;;;;;22.77;18.10;;;;;;;;;;5073669;28;20511;-77
2021/06/06 11:18:06;;;;;;;27.17;18.37;;;;;;;;;;5073273;28;20786;-77
2021/06/06 11:20:34;;;;;;;19.73;16.03;;;;;;;;;;5073694;28;20418;-75
2021/06/06 11:23:11;;;;;;;24.20;18.67;;;;;;;;;;5073798;28;20438;-76
2021/06/06 11:25:37;;;;;;;23.70;18.00;;;;;;;;;;5073863;28;20426;-80
2021/06/06 11:28:05;;;;;;;25.97;17.70;;;;;;;;;;5072277;28;20496;-73
2021/06/06 11:30:32;;;;;;;27.83;18.37;;;;;;;;;;5073656;28;20406;-76
2021/06/06 11:33:07;;;;;;;25.33;17.60;;;;;;;;;;5073655;28;20434;-74
2021/06/06 11:35:36;;;;;;;23.67;17.73;;;;;;;;;;5071084;28;20481;-75
2021/06/06 11:38:14;;;;;;;25.77;19.87;;;;;;;;;;5071832;28;20472;-74
2021/06/06 11:40:42;;;;;;;26.50;20.17;;;;;;;;;;5072933;28;20858;-75
2021/06/06 11:43:27;;;;;;;29.93;23.10;;;;;;;;;;5073314;28;20409;-73
2021/06/06 11:45:54;;;;;;;26.30;21.43;;;;;;;;;;5073116;28;20777;-77
2021/06/06 11:48:26;;;;;;;29.57;22.20;;;;;;;;;;5073280;28;20518;-74
2021/06/06 11:50:58;;;;;;;35.60;22.70;;;;;;;;;;5071589;28;20601;-76
2021/06/06 11:53:29;;;;;;;35.17;21.10;;;;;;;;;;5070493;28;20410;-74
2021/06/06 11:56:05;;;;;;;31.40;23.10;;;;;;;;;;5070804;28;20423;-75
2021/06/06 11:58:36;;;;;;;34.70;23.03;;;;;;;;;;5072092;28;20461;-74
2021/06/06 12:01:17;;;;;;;31.33;23.10;;;;;;;;;;5072341;28;20398;-75
2021/06/06 12:03:45;;;;;;;35.50;24.20;;;;;;;;;;5071935;28;20509;-74
2021/06/06 12:06:15;;;;;;;34.83;23.57;;;;;;;;;;5072271;28;20429;-74
2021/06/06 12:08:43;;;;;;;36.17;24.10;;;;;;;;;;5072042;28;20426;-75
2021/06/06 12:11:21;;;;;;;30.73;23.80;;;;;;;;;;5071958;28;20800;-76
2021/06/06 12:13:50;;;;;;;33.80;25.23;;;;;;;;;;5072043;28;20414;-76
2021/06/06 12:16:22;;;;;;;37.00;26.30;;;;;;;;;;5072289;28;20487;-75
2021/06/06 12:19:00;;;;;;;34.30;25.40;;;;;;;;;;5072276;28;20473;-75
2021/06/06 12:21:26;;;;;;;33.03;25.13;;;;;;;;;;5072153;28;20447;-75
2021/06/06 12:24:04;;;;;;;34.90;23.90;;;;;;;;;;5072143;28;20496;-74
2021/06/06 12:26:32;;;;;;;31.30;23.40;;;;;;;;;;5069268;28;20417;-74
2021/06/06 12:28:58;;;;;;;33.90;23.43;;;;;;;;;;5072154;28;20414;-75
2021/06/06 12:31:29;;;;;;;32.77;24.23;;;;;;;;;;5071978;28;20410;-74
2021/06/06 12:33:55;;;;;;;35.10;24.17;;;;;;;;;;5072155;28;20864;-73
2021/06/06 12:36:33;;;;;;;31.67;23.13;;;;;;;;;;5071641;28;20531;-75
2021/06/06 12:39:01;;;;;;;33.00;24.70;;;;;;;;;;5071547;28;20473;-75
2021/06/06 12:41:28;;;;;;;31.27;23.90;;;;;;;;;;5071143;28;20419;-75
2021/06/06 12:43:56;;;;;;;32.27;25.70;;;;;;;;;;5071415;28;20422;-76
2021/06/06 12:46:23;;;;;;;25.23;22.40;;;;;;;;;;5071134;28;20410;-73
2021/06/06 12:48:58;;;;;;;29.67;23.43;;;;;;;;;;5071128;28;20414;-74
2021/06/06 12:51:26;;;;;;;27.20;21.90;;;;;;;;;;5070729;28;20413;-74
2021/06/06 12:53:53;;;;;;;24.80;17.63;;;;;;;;;;5070806;28;20453;-76
2021/06/06 12:56:28;;;;;;;24.10;19.27;;;;;;;;;;5069977;28;20775;-74
2021/06/06 12:59:10;;;;;;;23.47;18.80;;;;;;;;;;5070563;28;20512;-74
2021/06/06 13:01:36;;;;;;;26.50;20.57;;;;;;;;;;5070848;28;20766;-74
2021/06/06 13:04:28;;;;;;;19.87;16.23;;;;;;;;;;5070678;28;20456;-74
2021/06/06 13:06:55;;;;;;;21.47;17.33;;;;;;;;;;5070096;28;20494;-74
2021/06/06 13:09:21;;;;;;;24.57;19.50;;;;;;;;;;5069128;28;20430;-75
2021/06/06 13:11:48;;;;;;;21.33;16.97;;;;;;;;;;5070403;28;20413;-74
2021/06/06 13:14:17;;;;;;;22.67;18.57;;;;;;;;;;5070028;28;20418;-74
2021/06/06 13:16:56;;;;;;;21.43;18.97;;;;;;;;;;5069963;28;20555;-75
2021/06/06 13:19:25;;;;;;;21.90;15.57;;;;;;;;;;5070139;28;20962;-75
2021/06/06 13:21:51;;;;;;;23.13;18.70;;;;;;;;;;5070086;28;20496;-76
2021/06/06 13:24:20;;;;;;;27.47;20.00;;;;;;;;;;5068905;28;20441;-74
2021/06/06 13:26:47;;;;;;;27.53;22.90;;;;;;;;;;5070156;28;20541;-73
2021/06/06 13:29:18;;;;;;;27.93;22.67;;;;;;;;;;5070225;28;20414;-73
2021/06/06 13:31:53;;;;;;;29.93;22.30;;;;;;;;;;5069935;28;20805;-75
2021/06/06 13:34:19;;;;;;;32.73;23.33;;;;;;;;;;5069533;28;20549;-77
2021/06/06 13:36:45;;;;;;;31.10;23.10;;;;;;;;;;5069909;28;20452;-74
2021/06/06 13:39:12;;;;;;;30.87;23.20;;;;;;;;;;5070120;28;20824;-75
2021/06/06 13:41:39;;;;;;;29.43;23.97;;;;;;;;;;5070584;28;20413;-74
2021/06/06 13:44:05;;;;;;;29.23;22.93;;;;;;;;;;5070191;28;20442;-74
2021/06/06 13:46:31;;;;;;;33.13;24.23;;;;;;;;;;5069872;28;20414;-74
2021/06/06 13:48:57;;;;;;;32.60;24.73;;;;;;;;;;5069679;28;20410;-74
2021/06/06 13:51:23;;;;;;;36.00;25.33;;;;;;;;;;5070021;28;20417;-73
2021/06/06 13:53:49;;;;;;;35.13;26.43;;;;;;;;;;5069798;28;20491;-74
2021/06/06 13:56:15;;;;;;;37.03;24.87;;;;;;;;;;5069829;28;20426;-74
2021/06/06 13:58:41;;;;;;;32.83;25.63;;;;;;;;;;5069883;28;20497;-74
2021/06/06 14:01:07;;;;;;;35.60;25.20;;;;;;;;;;5070084;28;20418;-73
2021/06/06 14:03:35;;;;;;;34.50;24.90;;;;;;;;;;5071012;28;20414;-74
2021/06/06 14:06:02;;;;;;;29.70;24.57;;;;;;;;;;5071934;28;20455;-74
2021/06/06 14:08:29;;;;;;;37.10;26.67;;;;;;;;;;5073366;28;20422;-73
2021/06/06 14:10:56;;;;;;;30.83;24.70;;;;;;;;;;5073175;28;20401;-74
2021/06/06 14:13:27;;;;;;;34.50;24.93;;;;;;;;;;5073320;28;20410;-75
2021/06/06 14:15:54;;;;;;;35.30;25.70;;;;;;;;;;5073325;28;20410;-74
2021/06/06 14:18:20;;;;;;;34.00;25.90;;;;;;;;;;5073592;28;20812;-74
2021/06/06 14:20:46;;;;;;;35.77;24.10;;;;;;;;;;5073386;28;20509;-74
2021/06/06 14:23:12;;;;;;;36.87;27.87;;;;;;;;;;5073514;28;20446;-74
2021/06/06 14:25:39;;;;;;;28.50;22.33;;;;;;;;;;5073421;28;20410;-74
2021/06/06 14:28:10;;;;;;;34.63;26.17;;;;;;;;;;5071872;28;20513;-74
2021/06/06 14:30:36;;;;;;;33.73;24.43;;;;;;;;;;5073180;28;20814;-75
2021/06/06 14:33:04;;;;;;;29.10;24.60;;;;;;;;;;5072940;28;20418;-75
2021/06/06 14:35:30;;;;;;;32.73;24.83;;;;;;;;;;5072969;28;20806;-74
2021/06/06 14:37:56;;;;;;;30.20;25.13;;;;;;;;;;5072939;28;20464;-75
2021/06/06 14:40:25;;;;;;;30.60;24.67;;;;;;;;;;5073442;28;20433;-76
2021/06/06 14:42:52;;;;;;;29.47;24.37;;;;;;;;;;5073822;28;20409;-75
2021/06/06 14:45:21;;;;;;;28.13;22.23;;;;;;;;;;5074024;28;20441;-74
2021/06/06 14:50:51;;;;;;;30.70;23.33;;;;;;;;;;5073626;28;20514;-77
2021/06/06 14:53:18;;;;;;;31.00;22.70;;;;;;;;;;5073680;28;20414;-75
2021/06/06 14:55:44;;;;;;;29.03;22.20;;;;;;;;;;5073662;28;20903;-77
2021/06/06 14:58:11;;;;;;;26.63;21.90;;;;;;;;;;5072006;28;21049;-76
2021/06/06 15:00:39;;;;;;;28.20;24.10;;;;;;;;;;5072220;28;20422;-76
2021/06/06 15:06:09;;;;;;;29.47;23.30;;;;;;;;;;5073534;28;20416;-77
2021/06/06 15:08:38;;;;;;;25.30;20.50;;;;;;;;;;5073610;28;20406;-75
2021/06/06 15:11:05;;;;;;;26.53;21.63;;;;;;;;;;5073398;28;20413;-74
2021/06/06 15:13:33;;;;;;;26.47;22.83;;;;;;;;;;5072368;28;20434;-75
2021/06/06 15:15:59;;;;;;;25.20;20.40;;;;;;;;;;5072367;28;20418;-75
2021/06/06 15:18:25;;;;;;;26.53;22.13;;;;;;;;;;5071617;28;20489;-76
2021/06/06 15:20:55;;;;;;;26.07;20.90;;;;;;;;;;5073069;28;20919;-76
2021/06/06 15:23:23;;;;;;;24.30;21.67;;;;;;;;;;5073049;28;20475;-76
2021/06/06 15:25:49;;;;;;;28.17;22.87;;;;;;;;;;5073089;28;20418;-75
2021/06/06 15:28:16;;;;;;;24.63;20.90;;;;;;;;;;5073260;28;20422;-80
2021/06/06 15:30:43;;;;;;;28.50;20.43;;;;;;;;;;5072898;28;20502;-74
2021/06/06 15:36:13;;;;;;;26.13;21.80;;;;;;;;;;5072790;28;20484;-78
2021/06/06 15:38:47;;;;;;;24.33;21.17;;;;;;;;;;5072655;28;20469;-78
2021/06/06 15:41:17;;;;;;;24.40;21.00;;;;;;;;;;5073157;28;20410;-78
2021/06/06 15:43:43;;;;;;;24.90;21.70;;;;;;;;;;5072931;28;20908;-78
2021/06/06 15:46:18;;;;;;;24.27;21.10;;;;;;;;;;5072768;28;20509;-78
2021/06/06 15:48:45;;;;;;;27.73;22.00;;;;;;;;;;5072758;28;20397;-78
2021/06/06 15:51:13;;;;;;;26.63;22.43;;;;;;;;;;5072973;28;20453;-78
2021/06/06 15:53:39;;;;;;;22.40;20.00;;;;;;;;;;5071676;28;20429;-79